sensor_id;sensor_type;location;lat;lon;timestamp;P1;durP1;ratioP1;P2;durP2;ratioP2
3415;SDS011;1721;51.238;9.562;2022-11-15T00:00:50;10.10;;;2.83;;
3415;SDS011;1721;51.238;9.562;2022-11-15T00:03:16;7.15;;;2.92;;
3415;SDS011;1721;51.238;9.562;2022-11-15T00:05:43;9.90;;;2.42;;
3415;SDS011;1721;51.238;9.562;2022-11-15T00:08:09;7.93;;;2.60;;
3415;SDS011;1721;51.238;9.562;2022-11-15T00:10:35;8.60;;;2.80;;
3415;SDS011;1721;51.238;9.562;2022-11-15T00:13:05;8.77;;;2.65;;
3415;SDS011;1721;51.238;9.562;2022-11-15T00:15:31;9.15;;;2.72;;
3415;SDS011;1721;51.238;9.562;2022-11-15T00:18:00;7.05;;;2.60;;
3415;SDS011;1721;51.238;9.562;2022-11-15T00:20:25;10.18;;;2.90;;
3415;SDS011;1721;51.238;9.562;2022-11-15T00:22:51;7.30;;;2.80;;
3415;SDS011;1721;51.238;9.562;2022-11-15T00:25:16;9.37;;;3.07;;
3415;SDS011;1721;51.238;9.562;2022-11-15T00:27:42;6.50;;;2.83;;
3415;SDS011;1721;51.238;9.562;2022-11-15T00:30:07;7.28;;;2.55;;
3415;SDS011;1721;51.238;9.562;2022-11-15T00:32:33;7.90;;;2.70;;
3415;SDS011;1721;51.238;9.562;2022-11-15T00:34:59;7.23;;;2.80;;
3415;SDS011;1721;51.238;9.562;2022-11-15T00:37:24;8.37;;;3.13;;
3415;SDS011;1721;51.238;9.562;2022-11-15T00:39:50;6.77;;;2.50;;
3415;SDS011;1721;51.238;9.562;2022-11-15T00:42:15;6.07;;;2.80;;
3415;SDS011;1721;51.238;9.562;2022-11-15T00:44:41;10.23;;;2.97;;
3415;SDS011;1721;51.238;9.562;2022-11-15T00:47:06;8.77;;;2.70;;
3415;SDS011;1721;51.238;9.562;2022-11-15T00:49:32;8.50;;;3.00;;
3415;SDS011;1721;51.238;9.562;2022-11-15T00:51:58;8.55;;;2.72;;
3415;SDS011;1721;51.238;9.562;2022-11-15T00:54:23;9.37;;;2.60;;
3415;SDS011;1721;51.238;9.562;2022-11-15T00:56:49;7.07;;;2.37;;
3415;SDS011;1721;51.238;9.562;2022-11-15T00:59:14;7.10;;;2.70;;
3415;SDS011;1721;51.238;9.562;2022-11-15T01:01:40;7.63;;;2.80;;
3415;SDS011;1721;51.238;9.562;2022-11-15T01:04:05;9.60;;;2.83;;
3415;SDS011;1721;51.238;9.562;2022-11-15T01:06:31;8.43;;;2.73;;
3415;SDS011;1721;51.238;9.562;2022-11-15T01:08:57;7.07;;;2.57;;
3415;SDS011;1721;51.238;9.562;2022-11-15T01:11:22;7.43;;;2.87;;
3415;SDS011;1721;51.238;9.562;2022-11-15T01:13:48;7.50;;;2.60;;
3415;SDS011;1721;51.238;9.562;2022-11-15T01:16:15;11.67;;;2.93;;
3415;SDS011;1721;51.238;9.562;2022-11-15T01:18:43;6.87;;;3.00;;
3415;SDS011;1721;51.238;9.562;2022-11-15T01:21:10;6.75;;;2.40;;
3415;SDS011;1721;51.238;9.562;2022-11-15T01:23:38;9.00;;;2.80;;
3415;SDS011;1721;51.238;9.562;2022-11-15T01:26:04;6.10;;;2.63;;
3415;SDS011;1721;51.238;9.562;2022-11-15T01:28:32;7.18;;;2.72;;
3415;SDS011;1721;51.238;9.562;2022-11-15T01:30:59;7.00;;;2.65;;
3415;SDS011;1721;51.238;9.562;2022-11-15T01:33:26;6.80;;;2.78;;
3415;SDS011;1721;51.238;9.562;2022-11-15T01:35:53;7.97;;;2.78;;
3415;SDS011;1721;51.238;9.562;2022-11-15T01:38:18;7.45;;;2.30;;
3415;SDS011;1721;51.238;9.562;2022-11-15T01:40:44;7.90;;;2.90;;
3415;SDS011;1721;51.238;9.562;2022-11-15T01:43:22;5.82;;;2.40;;
3415;SDS011;1721;51.238;9.562;2022-11-15T01:45:50;7.13;;;2.28;;
3415;SDS011;1721;51.238;9.562;2022-11-15T01:48:20;7.22;;;2.20;;
3415;SDS011;1721;51.238;9.562;2022-11-15T01:50:47;7.75;;;2.78;;
3415;SDS011;1721;51.238;9.562;2022-11-15T01:53:13;9.52;;;2.53;;
3415;SDS011;1721;51.238;9.562;2022-11-15T01:55:40;7.57;;;2.70;;
3415;SDS011;1721;51.238;9.562;2022-11-15T01:58:06;5.40;;;2.10;;
3415;SDS011;1721;51.238;9.562;2022-11-15T02:00:32;9.18;;;2.35;;
3415;SDS011;1721;51.238;9.562;2022-11-15T02:02:58;7.03;;;2.60;;
3415;SDS011;1721;51.238;9.562;2022-11-15T02:05:23;7.05;;;2.60;;
3415;SDS011;1721;51.238;9.562;2022-11-15T02:07:49;7.40;;;2.30;;
3415;SDS011;1721;51.238;9.562;2022-11-15T02:10:20;7.72;;;2.42;;
3415;SDS011;1721;51.238;9.562;2022-11-15T02:12:47;8.70;;;2.90;;
3415;SDS011;1721;51.238;9.562;2022-11-15T02:15:14;7.35;;;2.40;;
3415;SDS011;1721;51.238;9.562;2022-11-15T02:28:32;8.68;;;2.30;;
3415;SDS011;1721;51.238;9.562;2022-11-15T02:34:05;8.20;;;2.70;;
3415;SDS011;1721;51.238;9.562;2022-11-15T02:37:02;5.70;;;2.35;;
3415;SDS011;1721;51.238;9.562;2022-11-15T02:39:49;6.75;;;2.30;;
3415;SDS011;1721;51.238;9.562;2022-11-15T02:42:25;8.38;;;2.72;;
3415;SDS011;1721;51.238;9.562;2022-11-15T02:45:18;7.90;;;2.30;;
3415;SDS011;1721;51.238;9.562;2022-11-15T02:47:51;5.35;;;2.05;;
3415;SDS011;1721;51.238;9.562;2022-11-15T02:50:20;5.00;;;2.00;;
3415;SDS011;1721;51.238;9.562;2022-11-15T02:52:48;14.45;;;2.08;;
3415;SDS011;1721;51.238;9.562;2022-11-15T03:06:37;4.63;;;1.50;;
3415;SDS011;1721;51.238;9.562;2022-11-15T03:09:13;4.15;;;1.63;;
3415;SDS011;1721;51.238;9.562;2022-11-15T03:11:56;3.53;;;1.40;;
3415;SDS011;1721;51.238;9.562;2022-11-15T03:19:40;5.35;;;1.98;;
3415;SDS011;1721;51.238;9.562;2022-11-15T03:22:11;8.35;;;2.38;;
3415;SDS011;1721;51.238;9.562;2022-11-15T03:24:41;7.45;;;1.95;;
3415;SDS011;1721;51.238;9.562;2022-11-15T03:27:10;4.55;;;1.73;;
3415;SDS011;1721;51.238;9.562;2022-11-15T03:29:41;7.35;;;1.70;;
3415;SDS011;1721;51.238;9.562;2022-11-15T03:32:11;4.65;;;1.95;;
3415;SDS011;1721;51.238;9.562;2022-11-15T03:37:20;5.35;;;2.20;;
3415;SDS011;1721;51.238;9.562;2022-11-15T03:39:47;4.78;;;1.80;;
3415;SDS011;1721;51.238;9.562;2022-11-15T03:42:27;5.40;;;1.87;;
3415;SDS011;1721;51.238;9.562;2022-11-15T03:45:43;4.57;;;1.60;;
3415;SDS011;1721;51.238;9.562;2022-11-15T03:47:53;5.38;;;1.50;;
3415;SDS011;1721;51.238;9.562;2022-11-15T03:50:24;8.13;;;2.05;;
3415;SDS011;1721;51.238;9.562;2022-11-15T03:52:50;3.88;;;1.50;;
3415;SDS011;1721;51.238;9.562;2022-11-15T03:55:19;5.07;;;1.70;;
3415;SDS011;1721;51.238;9.562;2022-11-15T03:57:46;3.35;;;1.20;;
3415;SDS011;1721;51.238;9.562;2022-11-15T04:00:15;6.60;;;1.85;;
3415;SDS011;1721;51.238;9.562;2022-11-15T04:02:41;5.10;;;1.48;;
3415;SDS011;1721;51.238;9.562;2022-11-15T04:05:06;5.13;;;1.70;;
3415;SDS011;1721;51.238;9.562;2022-11-15T04:07:32;4.10;;;1.30;;
3415;SDS011;1721;51.238;9.562;2022-11-15T04:09:58;5.77;;;2.13;;
3415;SDS011;1721;51.238;9.562;2022-11-15T04:12:34;4.82;;;1.60;;
3415;SDS011;1721;51.238;9.562;2022-11-15T04:15:05;5.78;;;1.73;;
3415;SDS011;1721;51.238;9.562;2022-11-15T04:17:34;5.82;;;1.73;;
3415;SDS011;1721;51.238;9.562;2022-11-15T04:19:59;6.07;;;2.13;;
3415;SDS011;1721;51.238;9.562;2022-11-15T04:22:43;13.43;;;1.88;;
3415;SDS011;1721;51.238;9.562;2022-11-15T04:25:28;21.55;;;2.03;;
3415;SDS011;1721;51.238;9.562;2022-11-15T04:27:54;5.83;;;1.70;;
3415;SDS011;1721;51.238;9.562;2022-11-15T04:30:19;4.27;;;1.77;;
3415;SDS011;1721;51.238;9.562;2022-11-15T04:32:45;7.20;;;2.17;;
3415;SDS011;1721;51.238;9.562;2022-11-15T04:35:10;13.03;;;2.10;;
3415;SDS011;1721;51.238;9.562;2022-11-15T04:37:36;4.68;;;2.03;;
3415;SDS011;1721;51.238;9.562;2022-11-15T04:40:02;8.87;;;1.70;;
3415;SDS011;1721;51.238;9.562;2022-11-15T04:42:28;6.27;;;1.60;;
3415;SDS011;1721;51.238;9.562;2022-11-15T04:44:53;5.90;;;2.60;;
3415;SDS011;1721;51.238;9.562;2022-11-15T04:47:19;3.90;;;1.67;;
3415;SDS011;1721;51.238;9.562;2022-11-15T04:49:44;4.00;;;1.60;;
3415;SDS011;1721;51.238;9.562;2022-11-15T04:52:10;5.13;;;1.87;;
3415;SDS011;1721;51.238;9.562;2022-11-15T04:54:36;9.33;;;1.70;;
3415;SDS011;1721;51.238;9.562;2022-11-15T04:57:01;3.90;;;1.70;;
3415;SDS011;1721;51.238;9.562;2022-11-15T04:59:27;4.30;;;1.57;;
3415;SDS011;1721;51.238;9.562;2022-11-15T05:01:52;5.47;;;1.43;;
3415;SDS011;1721;51.238;9.562;2022-11-15T05:04:18;3.50;;;1.37;;
3415;SDS011;1721;51.238;9.562;2022-11-15T05:06:49;8.63;;;2.17;;
3415;SDS011;1721;51.238;9.562;2022-11-15T05:09:16;4.90;;;1.80;;
3415;SDS011;1721;51.238;9.562;2022-11-15T05:11:45;7.35;;;2.35;;
3415;SDS011;1721;51.238;9.562;2022-11-15T05:14:11;5.88;;;1.90;;
3415;SDS011;1721;51.238;9.562;2022-11-15T05:16:37;4.93;;;2.20;;
3415;SDS011;1721;51.238;9.562;2022-11-15T05:19:03;6.07;;;2.20;;
3415;SDS011;1721;51.238;9.562;2022-11-15T05:21:29;5.28;;;1.83;;
3415;SDS011;1721;51.238;9.562;2022-11-15T05:23:55;3.93;;;1.53;;
3415;SDS011;1721;51.238;9.562;2022-11-15T05:26:21;7.57;;;1.50;;
3415;SDS011;1721;51.238;9.562;2022-11-15T05:28:51;4.17;;;1.80;;
3415;SDS011;1721;51.238;9.562;2022-11-15T05:31:18;4.05;;;1.50;;
3415;SDS011;1721;51.238;9.562;2022-11-15T05:33:43;13.77;;;1.80;;
3415;SDS011;1721;51.238;9.562;2022-11-15T05:36:12;5.27;;;1.50;;
3415;SDS011;1721;51.238;9.562;2022-11-15T05:38:54;5.85;;;2.05;;
3415;SDS011;1721;51.238;9.562;2022-11-15T05:41:20;9.27;;;2.40;;
3415;SDS011;1721;51.238;9.562;2022-11-15T05:43:51;3.70;;;1.63;;
3415;SDS011;1721;51.238;9.562;2022-11-15T05:46:18;6.45;;;1.40;;
3415;SDS011;1721;51.238;9.562;2022-11-15T05:48:45;8.07;;;2.13;;
3415;SDS011;1721;51.238;9.562;2022-11-15T05:51:15;4.57;;;1.58;;
3415;SDS011;1721;51.238;9.562;2022-11-15T05:53:41;15.13;;;2.20;;
3415;SDS011;1721;51.238;9.562;2022-11-15T05:56:08;5.00;;;1.90;;
3415;SDS011;1721;51.238;9.562;2022-11-15T05:58:34;6.32;;;1.90;;
3415;SDS011;1721;51.238;9.562;2022-11-15T06:01:01;4.55;;;1.50;;
3415;SDS011;1721;51.238;9.562;2022-11-15T06:03:27;3.97;;;1.57;;
3415;SDS011;1721;51.238;9.562;2022-11-15T06:05:53;4.30;;;1.60;;
3415;SDS011;1721;51.238;9.562;2022-11-15T06:08:18;4.70;;;1.90;;
3415;SDS011;1721;51.238;9.562;2022-11-15T06:10:44;5.50;;;1.90;;
3415;SDS011;1721;51.238;9.562;2022-11-15T06:13:09;10.83;;;2.30;;
3415;SDS011;1721;51.238;9.562;2022-11-15T06:15:35;3.93;;;1.40;;
3415;SDS011;1721;51.238;9.562;2022-11-15T06:18:01;8.10;;;2.30;;
3415;SDS011;1721;51.238;9.562;2022-11-15T06:20:27;5.00;;;1.63;;
3415;SDS011;1721;51.238;9.562;2022-11-15T06:23:00;3.50;;;1.40;;
3415;SDS011;1721;51.238;9.562;2022-11-15T06:25:27;4.25;;;1.70;;
3415;SDS011;1721;51.238;9.562;2022-11-15T06:27:54;4.03;;;1.33;;
3415;SDS011;1721;51.238;9.562;2022-11-15T06:30:21;5.88;;;1.80;;
3415;SDS011;1721;51.238;9.562;2022-11-15T06:32:48;5.70;;;1.40;;
3415;SDS011;1721;51.238;9.562;2022-11-15T06:35:13;5.70;;;1.67;;
3415;SDS011;1721;51.238;9.562;2022-11-15T06:37:40;3.78;;;1.30;;
3415;SDS011;1721;51.238;9.562;2022-11-15T06:40:06;4.10;;;1.52;;
3415;SDS011;1721;51.238;9.562;2022-11-15T06:42:33;4.32;;;1.90;;
3415;SDS011;1721;51.238;9.562;2022-11-15T06:44:59;5.53;;;2.00;;
3415;SDS011;1721;51.238;9.562;2022-11-15T06:47:24;5.43;;;2.33;;
3415;SDS011;1721;51.238;9.562;2022-11-15T06:49:50;4.13;;;1.53;;
3415;SDS011;1721;51.238;9.562;2022-11-15T06:52:16;4.23;;;1.60;;
3415;SDS011;1721;51.238;9.562;2022-11-15T06:54:43;5.40;;;1.65;;
3415;SDS011;1721;51.238;9.562;2022-11-15T06:57:09;4.00;;;1.80;;
3415;SDS011;1721;51.238;9.562;2022-11-15T06:59:35;6.20;;;1.73;;
3415;SDS011;1721;51.238;9.562;2022-11-15T07:02:01;4.82;;;1.50;;
3415;SDS011;1721;51.238;9.562;2022-11-15T07:04:27;5.85;;;1.92;;
3415;SDS011;1721;51.238;9.562;2022-11-15T07:06:53;7.30;;;2.00;;
3415;SDS011;1721;51.238;9.562;2022-11-15T07:09:18;5.70;;;2.20;;
3415;SDS011;1721;51.238;9.562;2022-11-15T07:11:44;7.00;;;2.50;;
3415;SDS011;1721;51.238;9.562;2022-11-15T07:14:09;9.50;;;2.43;;
3415;SDS011;1721;51.238;9.562;2022-11-15T07:16:35;4.43;;;1.80;;
3415;SDS011;1721;51.238;9.562;2022-11-15T07:19:02;6.82;;;1.80;;
3415;SDS011;1721;51.238;9.562;2022-11-15T07:21:27;5.30;;;1.93;;
3415;SDS011;1721;51.238;9.562;2022-11-15T07:23:53;4.47;;;1.73;;
3415;SDS011;1721;51.238;9.562;2022-11-15T07:26:18;5.73;;;1.63;;
3415;SDS011;1721;51.238;9.562;2022-11-15T07:28:44;7.83;;;1.93;;
3415;SDS011;1721;51.238;9.562;2022-11-15T07:31:10;5.60;;;1.67;;
3415;SDS011;1721;51.238;9.562;2022-11-15T07:33:35;6.90;;;1.30;;
3415;SDS011;1721;51.238;9.562;2022-11-15T07:36:02;4.47;;;1.85;;
3415;SDS011;1721;51.238;9.562;2022-11-15T07:38:29;5.32;;;1.73;;
3415;SDS011;1721;51.238;9.562;2022-11-15T07:40:55;5.50;;;1.90;;
3415;SDS011;1721;51.238;9.562;2022-11-15T07:43:22;9.63;;;1.95;;
3415;SDS011;1721;51.238;9.562;2022-11-15T07:45:48;5.27;;;1.63;;
3415;SDS011;1721;51.238;9.562;2022-11-15T07:48:13;4.97;;;1.30;;
3415;SDS011;1721;51.238;9.562;2022-11-15T07:50:42;6.20;;;1.53;;
3415;SDS011;1721;51.238;9.562;2022-11-15T07:53:08;3.78;;;1.00;;
3415;SDS011;1721;51.238;9.562;2022-11-15T07:55:35;5.72;;;1.80;;
3415;SDS011;1721;51.238;9.562;2022-11-15T07:58:02;3.05;;;1.27;;
3415;SDS011;1721;51.238;9.562;2022-11-15T08:00:29;5.85;;;1.80;;
3415;SDS011;1721;51.238;9.562;2022-11-15T08:03:04;4.35;;;1.73;;
3415;SDS011;1721;51.238;9.562;2022-11-15T08:05:32;4.88;;;1.48;;
3415;SDS011;1721;51.238;9.562;2022-11-15T08:07:58;3.83;;;1.60;;
3415;SDS011;1721;51.238;9.562;2022-11-15T08:10:24;3.20;;;1.10;;
3415;SDS011;1721;51.238;9.562;2022-11-15T08:12:57;5.15;;;1.35;;
3415;SDS011;1721;51.238;9.562;2022-11-15T08:15:41;3.67;;;1.13;;
3415;SDS011;1721;51.238;9.562;2022-11-15T08:18:12;5.05;;;1.83;;
3415;SDS011;1721;51.238;9.562;2022-11-15T08:20:39;5.00;;;1.70;;
3415;SDS011;1721;51.238;9.562;2022-11-15T08:23:05;4.75;;;1.67;;
3415;SDS011;1721;51.238;9.562;2022-11-15T08:25:33;6.50;;;1.58;;
3415;SDS011;1721;51.238;9.562;2022-11-15T08:28:00;8.43;;;2.17;;
3415;SDS011;1721;51.238;9.562;2022-11-15T08:30:27;4.65;;;1.75;;
3415;SDS011;1721;51.238;9.562;2022-11-15T08:32:54;7.07;;;2.47;;
3415;SDS011;1721;51.238;9.562;2022-11-15T08:35:22;4.63;;;1.80;;
3415;SDS011;1721;51.238;9.562;2022-11-15T08:37:48;5.30;;;2.60;;
3415;SDS011;1721;51.238;9.562;2022-11-15T08:40:14;7.87;;;1.60;;
3415;SDS011;1721;51.238;9.562;2022-11-15T08:42:40;3.85;;;1.40;;
3415;SDS011;1721;51.238;9.562;2022-11-15T08:45:07;4.30;;;1.47;;
3415;SDS011;1721;51.238;9.562;2022-11-15T08:47:33;4.55;;;1.50;;
3415;SDS011;1721;51.238;9.562;2022-11-15T08:49:59;6.60;;;1.65;;
3415;SDS011;1721;51.238;9.562;2022-11-15T08:52:25;6.00;;;1.93;;
3415;SDS011;1721;51.238;9.562;2022-11-15T08:54:50;12.50;;;2.17;;
3415;SDS011;1721;51.238;9.562;2022-11-15T08:57:16;4.00;;;1.23;;
3415;SDS011;1721;51.238;9.562;2022-11-15T08:59:42;4.40;;;1.80;;
3415;SDS011;1721;51.238;9.562;2022-11-15T09:02:11;4.67;;;1.60;;
3415;SDS011;1721;51.238;9.562;2022-11-15T09:04:39;6.07;;;2.50;;
3415;SDS011;1721;51.238;9.562;2022-11-15T09:07:06;5.55;;;1.95;;
3415;SDS011;1721;51.238;9.562;2022-11-15T09:09:32;5.17;;;1.20;;
3415;SDS011;1721;51.238;9.562;2022-11-15T09:11:57;4.60;;;1.60;;
3415;SDS011;1721;51.238;9.562;2022-11-15T09:14:23;5.10;;;1.93;;
3415;SDS011;1721;51.238;9.562;2022-11-15T09:16:48;4.83;;;1.50;;
3415;SDS011;1721;51.238;9.562;2022-11-15T09:19:14;4.30;;;1.33;;
3415;SDS011;1721;51.238;9.562;2022-11-15T09:21:40;5.63;;;1.50;;
3415;SDS011;1721;51.238;9.562;2022-11-15T09:24:05;3.47;;;1.30;;
3415;SDS011;1721;51.238;9.562;2022-11-15T09:26:31;3.40;;;1.20;;
3415;SDS011;1721;51.238;9.562;2022-11-15T09:28:56;4.53;;;1.43;;
3415;SDS011;1721;51.238;9.562;2022-11-15T09:31:22;4.03;;;1.10;;
3415;SDS011;1721;51.238;9.562;2022-11-15T09:33:47;4.03;;;1.30;;
3415;SDS011;1721;51.238;9.562;2022-11-15T09:36:13;5.30;;;1.50;;
3415;SDS011;1721;51.238;9.562;2022-11-15T09:38:38;3.70;;;1.30;;
3415;SDS011;1721;51.238;9.562;2022-11-15T09:44:05;7.50;;;1.92;;
3415;SDS011;1721;51.238;9.562;2022-11-15T09:46:28;4.22;;;1.50;;
3415;SDS011;1721;51.238;9.562;2022-11-15T09:48:57;10.93;;;1.83;;
3415;SDS011;1721;51.238;9.562;2022-11-15T09:54:02;4.47;;;1.30;;
3415;SDS011;1721;51.238;9.562;2022-11-15T09:56:41;4.57;;;1.10;;
3415;SDS011;1721;51.238;9.562;2022-11-15T09:59:13;6.07;;;1.30;;
3415;SDS011;1721;51.238;9.562;2022-11-15T10:04:32;3.60;;;1.10;;
3415;SDS011;1721;51.238;9.562;2022-11-15T10:07:02;8.50;;;0.97;;
3415;SDS011;1721;51.238;9.562;2022-11-15T10:09:38;6.65;;;1.58;;
3415;SDS011;1721;51.238;9.562;2022-11-15T10:12:24;4.13;;;1.45;;
3415;SDS011;1721;51.238;9.562;2022-11-15T10:14:50;5.53;;;1.67;;
3415;SDS011;1721;51.238;9.562;2022-11-15T10:17:50;4.80;;;1.42;;
3415;SDS011;1721;51.238;9.562;2022-11-15T10:20:44;3.05;;;1.05;;
3415;SDS011;1721;51.238;9.562;2022-11-15T10:23:19;6.88;;;1.55;;
3415;SDS011;1721;51.238;9.562;2022-11-15T10:25:46;3.45;;;1.20;;
3415;SDS011;1721;51.238;9.562;2022-11-15T10:30:52;4.97;;;1.50;;
3415;SDS011;1721;51.238;9.562;2022-11-15T10:33:24;4.78;;;1.33;;
3415;SDS011;1721;51.238;9.562;2022-11-15T10:41:13;6.57;;;1.40;;
3415;SDS011;1721;51.238;9.562;2022-11-15T10:43:44;5.00;;;1.70;;
3415;SDS011;1721;51.238;9.562;2022-11-15T10:46:23;5.20;;;1.42;;
3415;SDS011;1721;51.238;9.562;2022-11-15T10:48:49;5.75;;;1.38;;
3415;SDS011;1721;51.238;9.562;2022-11-15T10:51:19;4.40;;;1.67;;
3415;SDS011;1721;51.238;9.562;2022-11-15T10:53:53;3.80;;;1.20;;
3415;SDS011;1721;51.238;9.562;2022-11-15T10:56:21;5.70;;;1.58;;
3415;SDS011;1721;51.238;9.562;2022-11-15T10:58:53;5.88;;;1.60;;
3415;SDS011;1721;51.238;9.562;2022-11-15T11:01:22;4.50;;;1.40;;
3415;SDS011;1721;51.238;9.562;2022-11-15T11:04:06;4.63;;;1.65;;
3415;SDS011;1721;51.238;9.562;2022-11-15T11:09:31;3.53;;;1.10;;
3415;SDS011;1721;51.238;9.562;2022-11-15T11:11:58;4.30;;;1.43;;
3415;SDS011;1721;51.238;9.562;2022-11-15T11:14:25;6.15;;;1.30;;
3415;SDS011;1721;51.238;9.562;2022-11-15T11:19:49;3.20;;;1.10;;
3415;SDS011;1721;51.238;9.562;2022-11-15T11:22:42;8.88;;;1.60;;
3415;SDS011;1721;51.238;9.562;2022-11-15T11:25:35;5.72;;;1.70;;
3415;SDS011;1721;51.238;9.562;2022-11-15T11:36:48;5.63;;;1.42;;
3415;SDS011;1721;51.238;9.562;2022-11-15T11:39:49;7.18;;;1.40;;
3415;SDS011;1721;51.238;9.562;2022-11-15T11:45:40;4.07;;;1.50;;
3415;SDS011;1721;51.238;9.562;2022-11-15T11:48:36;7.03;;;1.50;;
3415;SDS011;1721;51.238;9.562;2022-11-15T11:51:12;5.25;;;1.55;;
3415;SDS011;1721;51.238;9.562;2022-11-15T11:53:42;4.13;;;1.30;;
3415;SDS011;1721;51.238;9.562;2022-11-15T11:56:22;4.38;;;1.65;;
3415;SDS011;1721;51.238;9.562;2022-11-15T11:59:00;6.10;;;2.00;;
3415;SDS011;1721;51.238;9.562;2022-11-15T12:01:37;4.03;;;1.60;;
3415;SDS011;1721;51.238;9.562;2022-11-15T12:04:19;4.32;;;1.60;;
3415;SDS011;1721;51.238;9.562;2022-11-15T12:07:00;4.72;;;1.63;;
3415;SDS011;1721;51.238;9.562;2022-11-15T12:09:30;9.35;;;1.90;;
3415;SDS011;1721;51.238;9.562;2022-11-15T12:17:34;4.07;;;1.70;;
3415;SDS011;1721;51.238;9.562;2022-11-15T12:20:02;7.23;;;2.00;;
3415;SDS011;1721;51.238;9.562;2022-11-15T12:22:42;5.70;;;1.87;;
3415;SDS011;1721;51.238;9.562;2022-11-15T12:25:46;4.88;;;1.52;;
3415;SDS011;1721;51.238;9.562;2022-11-15T12:28:08;4.10;;;1.50;;
3415;SDS011;1721;51.238;9.562;2022-11-15T12:30:49;6.70;;;1.60;;
3415;SDS011;1721;51.238;9.562;2022-11-15T12:36:08;4.28;;;1.35;;
3415;SDS011;1721;51.238;9.562;2022-11-15T12:38:59;4.17;;;1.33;;
3415;SDS011;1721;51.238;9.562;2022-11-15T12:41:29;3.83;;;1.20;;
3415;SDS011;1721;51.238;9.562;2022-11-15T12:43:59;5.13;;;1.70;;
3415;SDS011;1721;51.238;9.562;2022-11-15T12:48:58;4.32;;;1.35;;
3415;SDS011;1721;51.238;9.562;2022-11-15T12:54:58;3.30;;;1.20;;
3415;SDS011;1721;51.238;9.562;2022-11-15T13:02:18;3.70;;;1.40;;
3415;SDS011;1721;51.238;9.562;2022-11-15T13:04:47;8.00;;;1.30;;
3415;SDS011;1721;51.238;9.562;2022-11-15T13:30:39;3.90;;;1.40;;
3415;SDS011;1721;51.238;9.562;2022-11-15T13:33:10;5.20;;;1.83;;
3415;SDS011;1721;51.238;9.562;2022-11-15T13:35:41;3.40;;;1.37;;
3415;SDS011;1721;51.238;9.562;2022-11-15T13:38:25;4.65;;;1.30;;
3415;SDS011;1721;51.238;9.562;2022-11-15T13:40:58;3.88;;;1.67;;
3415;SDS011;1721;51.238;9.562;2022-11-15T13:43:35;4.68;;;1.45;;
3415;SDS011;1721;51.238;9.562;2022-11-15T13:46:04;6.28;;;1.77;;
3415;SDS011;1721;51.238;9.562;2022-11-15T13:48:30;3.92;;;1.50;;
3415;SDS011;1721;51.238;9.562;2022-11-15T13:50:55;4.23;;;1.50;;
3415;SDS011;1721;51.238;9.562;2022-11-15T13:53:22;8.40;;;2.17;;
3415;SDS011;1721;51.238;9.562;2022-11-15T13:55:48;6.20;;;1.90;;
3415;SDS011;1721;51.238;9.562;2022-11-15T13:58:14;6.35;;;1.15;;
3415;SDS011;1721;51.238;9.562;2022-11-15T14:05:41;5.53;;;1.70;;
3415;SDS011;1721;51.238;9.562;2022-11-15T14:08:21;6.50;;;1.70;;
3415;SDS011;1721;51.238;9.562;2022-11-15T14:10:48;3.60;;;1.33;;
3415;SDS011;1721;51.238;9.562;2022-11-15T14:13:31;5.57;;;1.30;;
3415;SDS011;1721;51.238;9.562;2022-11-15T14:16:12;5.33;;;1.43;;
3415;SDS011;1721;51.238;9.562;2022-11-15T14:21:11;3.45;;;1.13;;
3415;SDS011;1721;51.238;9.562;2022-11-15T14:23:37;3.43;;;1.40;;
3415;SDS011;1721;51.238;9.562;2022-11-15T14:26:03;3.60;;;1.20;;
3415;SDS011;1721;51.238;9.562;2022-11-15T14:28:30;3.23;;;1.17;;
3415;SDS011;1721;51.238;9.562;2022-11-15T14:30:58;5.45;;;1.58;;
3415;SDS011;1721;51.238;9.562;2022-11-15T14:33:28;3.80;;;1.35;;
3415;SDS011;1721;51.238;9.562;2022-11-15T14:35:55;6.97;;;1.70;;
3415;SDS011;1721;51.238;9.562;2022-11-15T14:38:22;11.50;;;1.48;;
3415;SDS011;1721;51.238;9.562;2022-11-15T14:40:49;3.58;;;1.33;;
3415;SDS011;1721;51.238;9.562;2022-11-15T14:43:15;7.37;;;1.60;;
3415;SDS011;1721;51.238;9.562;2022-11-15T14:45:40;4.10;;;1.20;;
3415;SDS011;1721;51.238;9.562;2022-11-15T14:48:07;6.33;;;1.70;;
3415;SDS011;1721;51.238;9.562;2022-11-15T14:50:33;5.87;;;1.47;;
3415;SDS011;1721;51.238;9.562;2022-11-15T14:52:59;5.43;;;1.73;;
3415;SDS011;1721;51.238;9.562;2022-11-15T14:55:26;10.07;;;1.80;;
3415;SDS011;1721;51.238;9.562;2022-11-15T14:57:58;4.30;;;1.60;;
3415;SDS011;1721;51.238;9.562;2022-11-15T15:00:24;13.03;;;2.33;;
3415;SDS011;1721;51.238;9.562;2022-11-15T15:02:51;4.80;;;1.40;;
3415;SDS011;1721;51.238;9.562;2022-11-15T15:05:25;4.05;;;1.50;;
3415;SDS011;1721;51.238;9.562;2022-11-15T15:07:56;4.95;;;1.67;;
3415;SDS011;1721;51.238;9.562;2022-11-15T15:10:22;7.75;;;1.92;;
3415;SDS011;1721;51.238;9.562;2022-11-15T15:12:49;5.35;;;1.25;;
3415;SDS011;1721;51.238;9.562;2022-11-15T15:15:16;4.50;;;1.53;;
3415;SDS011;1721;51.238;9.562;2022-11-15T15:17:49;4.22;;;1.70;;
3415;SDS011;1721;51.238;9.562;2022-11-15T15:20:14;4.47;;;1.73;;
3415;SDS011;1721;51.238;9.562;2022-11-15T15:22:40;4.90;;;1.45;;
3415;SDS011;1721;51.238;9.562;2022-11-15T15:25:15;5.28;;;1.75;;
3415;SDS011;1721;51.238;9.562;2022-11-15T15:27:46;5.78;;;2.03;;
3415;SDS011;1721;51.238;9.562;2022-11-15T15:30:12;5.27;;;2.20;;
3415;SDS011;1721;51.238;9.562;2022-11-15T15:32:38;5.73;;;1.67;;
3415;SDS011;1721;51.238;9.562;2022-11-15T15:35:04;7.60;;;1.63;;
3415;SDS011;1721;51.238;9.562;2022-11-15T15:37:30;3.80;;;1.33;;
3415;SDS011;1721;51.238;9.562;2022-11-15T15:39:58;5.22;;;1.55;;
3415;SDS011;1721;51.238;9.562;2022-11-15T15:42:24;3.95;;;1.30;;
3415;SDS011;1721;51.238;9.562;2022-11-15T15:44:49;4.97;;;1.73;;
3415;SDS011;1721;51.238;9.562;2022-11-15T15:47:22;5.05;;;1.40;;
3415;SDS011;1721;51.238;9.562;2022-11-15T15:49:49;3.50;;;1.17;;
3415;SDS011;1721;51.238;9.562;2022-11-15T15:52:15;3.72;;;1.30;;
3415;SDS011;1721;51.238;9.562;2022-11-15T15:54:41;3.90;;;1.45;;
3415;SDS011;1721;51.238;9.562;2022-11-15T15:57:07;3.83;;;1.23;;
3415;SDS011;1721;51.238;9.562;2022-11-15T15:59:36;3.53;;;1.42;;
3415;SDS011;1721;51.238;9.562;2022-11-15T16:02:01;4.47;;;1.43;;
3415;SDS011;1721;51.238;9.562;2022-11-15T16:04:27;4.87;;;1.30;;
3415;SDS011;1721;51.238;9.562;2022-11-15T16:06:54;5.10;;;1.65;;
3415;SDS011;1721;51.238;9.562;2022-11-15T16:09:23;11.52;;;2.20;;
3415;SDS011;1721;51.238;9.562;2022-11-15T16:12:09;5.18;;;1.60;;
3415;SDS011;1721;51.238;9.562;2022-11-15T16:14:35;5.67;;;1.47;;
3415;SDS011;1721;51.238;9.562;2022-11-15T16:17:00;5.40;;;1.43;;
3415;SDS011;1721;51.238;9.562;2022-11-15T16:19:26;9.23;;;2.13;;
3415;SDS011;1721;51.238;9.562;2022-11-15T16:21:52;5.90;;;1.80;;
3415;SDS011;1721;51.238;9.562;2022-11-15T16:24:18;9.63;;;2.07;;
3415;SDS011;1721;51.238;9.562;2022-11-15T16:26:44;5.35;;;2.00;;
3415;SDS011;1721;51.238;9.562;2022-11-15T16:29:11;6.43;;;2.20;;
3415;SDS011;1721;51.238;9.562;2022-11-15T16:31:37;12.33;;;2.70;;
3415;SDS011;1721;51.238;9.562;2022-11-15T16:34:02;8.47;;;2.53;;
3415;SDS011;1721;51.238;9.562;2022-11-15T16:36:29;6.80;;;1.80;;
3415;SDS011;1721;51.238;9.562;2022-11-15T16:38:57;9.45;;;2.17;;
3415;SDS011;1721;51.238;9.562;2022-11-15T16:41:23;6.80;;;3.03;;
3415;SDS011;1721;51.238;9.562;2022-11-15T16:43:49;4.30;;;1.67;;
3415;SDS011;1721;51.238;9.562;2022-11-15T16:46:22;8.87;;;2.93;;
3415;SDS011;1721;51.238;9.562;2022-11-15T16:48:51;5.80;;;2.00;;
3415;SDS011;1721;51.238;9.562;2022-11-15T16:51:18;5.80;;;1.95;;
3415;SDS011;1721;51.238;9.562;2022-11-15T16:53:44;8.17;;;2.20;;
3415;SDS011;1721;51.238;9.562;2022-11-15T16:56:23;7.15;;;2.58;;
3415;SDS011;1721;51.238;9.562;2022-11-15T16:58:51;12.63;;;3.30;;
3415;SDS011;1721;51.238;9.562;2022-11-15T17:01:21;10.18;;;2.55;;
3415;SDS011;1721;51.238;9.562;2022-11-15T17:03:48;8.32;;;3.08;;
3415;SDS011;1721;51.238;9.562;2022-11-15T17:06:14;8.87;;;3.03;;
3415;SDS011;1721;51.238;9.562;2022-11-15T17:08:42;7.85;;;2.72;;
3415;SDS011;1721;51.238;9.562;2022-11-15T17:11:08;8.90;;;2.20;;
3415;SDS011;1721;51.238;9.562;2022-11-15T17:13:34;6.95;;;2.47;;
3415;SDS011;1721;51.238;9.562;2022-11-15T17:16:10;10.50;;;2.50;;
3415;SDS011;1721;51.238;9.562;2022-11-15T17:18:39;4.78;;;1.75;;
3415;SDS011;1721;51.238;9.562;2022-11-15T17:21:06;7.53;;;2.97;;
3415;SDS011;1721;51.238;9.562;2022-11-15T17:23:34;10.70;;;2.78;;